createdAt,value
2022-11-15T00:01:44.165Z,10.90
2022-11-15T00:04:29.657Z,10.92
2022-11-15T00:07:40.538Z,10.90
2022-11-15T00:10:20.962Z,10.91
2022-11-15T00:13:08.505Z,10.91
2022-11-15T00:15:57.246Z,10.89
2022-11-15T00:18:47.774Z,10.91
2022-11-15T00:21:36.201Z,10.93
2022-11-15T00:24:21.672Z,10.91
2022-11-15T00:27:08.155Z,10.90
2022-11-15T00:29:54.223Z,10.90
2022-11-15T00:32:39.983Z,10.89
2022-11-15T00:35:25.631Z,10.88
2022-11-15T00:38:11.231Z,10.88
2022-11-15T00:40:56.979Z,10.88
2022-11-15T00:43:44.379Z,10.85
2022-11-15T00:46:29.842Z,10.85
2022-11-15T00:49:15.554Z,10.83
2022-11-15T00:52:01.125Z,10.80
2022-11-15T00:54:49.552Z,10.78
2022-11-15T00:57:35.311Z,10.76
2022-11-15T01:00:20.913Z,10.76
2022-11-15T01:03:06.423Z,10.76
2022-11-15T01:05:51.950Z,10.73
2022-11-15T01:08:37.622Z,10.71
2022-11-15T01:11:23.390Z,10.69
2022-11-15T01:14:09.109Z,10.66
2022-11-15T01:16:54.629Z,10.65
2022-11-15T01:19:40.206Z,10.65
2022-11-15T01:22:25.565Z,10.65
2022-11-15T01:25:11.053Z,10.66
2022-11-15T01:27:56.431Z,10.68
2022-11-15T01:30:41.923Z,10.69
2022-11-15T01:33:29.382Z,10.70
2022-11-15T01:36:24.618Z,10.72
2022-11-15T01:39:10.092Z,10.74
2022-11-15T01:41:55.862Z,10.74
2022-11-15T01:44:50.052Z,10.73
2022-11-15T01:47:44.339Z,10.71
2022-11-15T01:50:33.595Z,10.71
2022-11-15T01:53:22.454Z,10.71
2022-11-15T01:56:12.752Z,10.73
2022-11-15T01:59:03.054Z,10.74
2022-11-15T02:01:48.830Z,10.77
2022-11-15T02:04:45.566Z,10.78
2022-11-15T02:07:32.979Z,10.80
2022-11-15T02:10:24.287Z,10.81
2022-11-15T02:13:13.143Z,10.83
2022-11-15T02:16:20.683Z,10.87
2022-11-15T02:19:33.975Z,10.94
2022-11-15T02:22:54.616Z,10.99
2022-11-15T02:26:20.907Z,11.02
2022-11-15T02:29:16.490Z,11.04
2022-11-15T02:32:31.912Z,11.04
2022-11-15T02:35:34.330Z,11.04
2022-11-15T02:39:03.829Z,11.04
2022-11-15T02:42:04.378Z,11.04
2022-11-15T02:44:51.615Z,11.04
2022-11-15T02:47:45.097Z,11.03
2022-11-15T02:50:32.994Z,11.01
2022-11-15T02:53:21.264Z,11.01
2022-11-15T02:56:10.072Z,10.99
2022-11-15T02:59:20.634Z,10.97
2022-11-15T03:02:37.418Z,10.94
2022-11-15T03:05:57.716Z,10.93
2022-11-15T03:09:27.843Z,10.92
2022-11-15T03:12:31.030Z,10.92
2022-11-15T03:15:27.484Z,10.91
2022-11-15T03:18:34.634Z,10.90
2022-11-15T03:21:22.662Z,10.90
2022-11-15T03:24:09.788Z,10.89
2022-11-15T03:26:59.836Z,10.89
2022-11-15T03:29:52.399Z,10.90
2022-11-15T03:32:52.867Z,10.89
2022-11-15T03:35:45.401Z,10.88
2022-11-15T03:38:35.012Z,10.88
2022-11-15T03:41:47.720Z,10.87
2022-11-15T03:45:03.978Z,10.88
2022-11-15T03:47:59.350Z,10.87
2022-11-15T03:50:46.574Z,10.88
2022-11-15T03:53:33.000Z,10.88
2022-11-15T03:56:19.087Z,10.89
2022-11-15T03:59:04.604Z,10.90
2022-11-15T04:01:50.139Z,10.87
2022-11-15T04:04:35.586Z,10.88
2022-11-15T04:07:21.226Z,10.86
2022-11-15T04:10:07.584Z,10.88
2022-11-15T04:12:53.811Z,10.88
2022-11-15T04:15:39.264Z,10.89
2022-11-15T04:18:25.271Z,10.89
2022-11-15T04:21:29.450Z,10.91
2022-11-15T04:24:15.045Z,10.92
2022-11-15T04:27:01.182Z,10.91
2022-11-15T04:29:46.601Z,10.91
2022-11-15T04:32:31.938Z,10.94
2022-11-15T04:35:17.419Z,10.94
2022-11-15T04:38:05.831Z,10.97
2022-11-15T04:40:51.257Z,10.97
2022-11-15T04:43:36.790Z,10.99
2022-11-15T04:46:24.508Z,11.01
2022-11-15T04:49:09.859Z,11.02
2022-11-15T04:51:55.617Z,11.03
2022-11-15T04:54:43.086Z,11.05
2022-11-15T04:57:28.577Z,11.05
2022-11-15T05:00:17.180Z,11.08
2022-11-15T05:03:20.822Z,11.10
2022-11-15T05:06:07.468Z,11.11
2022-11-15T05:08:53.572Z,11.15
2022-11-15T05:11:38.923Z,11.18
2022-11-15T05:14:24.434Z,11.18
2022-11-15T05:17:10.070Z,11.15
2022-11-15T05:19:55.514Z,11.15
2022-11-15T05:22:41.308Z,11.13
2022-11-15T05:25:27.507Z,11.12
2022-11-15T05:28:13.639Z,11.13
2022-11-15T05:31:08.114Z,11.10
2022-11-15T05:33:56.434Z,11.08
2022-11-15T05:36:46.772Z,11.06
2022-11-15T05:39:32.494Z,11.05
2022-11-15T05:42:18.206Z,11.03
2022-11-15T05:45:07.393Z,11.02
2022-11-15T05:47:56.142Z,10.99
2022-11-15T05:50:46.076Z,11.00
2022-11-15T05:53:32.483Z,11.02
2022-11-15T05:56:18.242Z,11.01
2022-11-15T05:59:03.971Z,11.03
2022-11-15T06:01:50.382Z,11.07
2022-11-15T06:04:36.226Z,11.10
2022-11-15T06:07:21.516Z,11.11
2022-11-15T06:10:07.997Z,11.13
2022-11-15T06:13:00.831Z,11.13
2022-11-15T06:15:46.621Z,11.16
2022-11-15T06:18:36.042Z,11.17
2022-11-15T06:21:21.938Z,11.18
2022-11-15T06:24:08.435Z,11.17
2022-11-15T06:26:54.166Z,11.17
2022-11-15T06:29:39.892Z,11.16
2022-11-15T06:32:25.257Z,11.14
2022-11-15T06:35:10.932Z,11.12
2022-11-15T06:37:57.310Z,11.11
2022-11-15T06:40:42.956Z,11.07
2022-11-15T06:43:28.737Z,11.07
2022-11-15T06:46:14.214Z,11.05
2022-11-15T06:49:01.222Z,11.05
2022-11-15T06:51:49.736Z,11.07
2022-11-15T06:54:35.410Z,11.03
2022-11-15T06:57:20.770Z,11.00
2022-11-15T07:00:07.217Z,10.97
2022-11-15T07:02:52.895Z,10.98
2022-11-15T07:05:38.340Z,10.98
2022-11-15T07:08:27.324Z,10.99
2022-11-15T07:11:12.793Z,10.99
2022-11-15T07:13:58.095Z,11.00
2022-11-15T07:16:43.456Z,11.00
2022-11-15T07:19:28.952Z,11.01
2022-11-15T07:22:14.714Z,11.04
2022-11-15T07:25:00.046Z,11.05
2022-11-15T07:27:59.263Z,11.06
2022-11-15T07:30:45.482Z,11.06
2022-11-15T07:33:31.962Z,11.08
2022-11-15T07:36:18.206Z,11.09
2022-11-15T07:39:03.660Z,11.10
2022-11-15T07:41:50.390Z,11.08
2022-11-15T07:44:35.797Z,11.07
2022-11-15T07:47:21.515Z,11.03
2022-11-15T07:50:07.366Z,11.04
2022-11-15T07:52:57.870Z,11.04
2022-11-15T07:55:43.553Z,11.08
2022-11-15T07:58:29.241Z,11.13
2022-11-15T08:01:15.117Z,11.19
2022-11-15T08:04:00.896Z,11.24
2022-11-15T08:06:47.017Z,11.29
2022-11-15T08:09:32.600Z,11.32
2022-11-15T08:12:18.086Z,11.37
2022-11-15T08:15:04.350Z,11.39
2022-11-15T08:17:58.329Z,11.39
2022-11-15T08:20:44.499Z,11.36
2022-11-15T08:23:30.771Z,11.37
2022-11-15T08:26:16.400Z,11.37
2022-11-15T08:29:02.186Z,11.37
2022-11-15T08:31:47.711Z,11.35
2022-11-15T08:34:33.304Z,11.36
2022-11-15T08:37:18.996Z,11.37
2022-11-15T08:40:06.221Z,11.39
2022-11-15T08:42:51.808Z,11.42
2022-11-15T08:45:37.256Z,11.42
2022-11-15T08:48:23.477Z,11.44
2022-11-15T08:51:08.964Z,11.46
2022-11-15T08:53:54.242Z,11.48
2022-11-15T08:56:39.548Z,11.48
2022-11-15T08:59:25.159Z,11.50
2022-11-15T09:02:15.563Z,11.49
2022-11-15T09:05:01.249Z,11.46
2022-11-15T09:07:46.951Z,11.43
2022-11-15T09:10:32.490Z,11.40
2022-11-15T09:13:18.320Z,11.35
2022-11-15T09:16:05.189Z,11.32
2022-11-15T09:18:50.974Z,11.32
2022-11-15T09:21:36.319Z,11.31
2022-11-15T09:24:22.066Z,11.33
2022-11-15T09:27:07.638Z,11.34
2022-11-15T09:29:53.386Z,11.39
2022-11-15T09:32:39.589Z,11.41
2022-11-15T09:35:25.186Z,11.42
2022-11-15T09:38:10.810Z,11.45
2022-11-15T09:41:14.454Z,11.47
2022-11-15T09:44:14.889Z,11.48
2022-11-15T09:48:04.260Z,11.49
2022-11-15T09:51:02.721Z,11.48
2022-11-15T09:54:45.731Z,11.49
2022-11-15T09:56:51.327Z,11.50
2022-11-15T09:59:40.803Z,11.52
2022-11-15T10:02:34.255Z,11.54
2022-11-15T10:05:02.435Z,11.55
2022-11-15T10:07:46.918Z,11.60
2022-11-15T10:10:46.348Z,11.62
2022-11-15T10:13:23.424Z,11.66
2022-11-15T10:15:51.489Z,11.70
2022-11-15T10:19:10.566Z,11.75
2022-11-15T10:22:02.564Z,11.80
2022-11-15T10:24:36.434Z,11.85
2022-11-15T10:27:15.898Z,11.88
2022-11-15T10:29:49.826Z,11.91
2022-11-15T10:32:20.126Z,11.95
2022-11-15T10:34:49.453Z,11.97
2022-11-15T10:37:30.435Z,12.00
2022-11-15T10:40:04.914Z,12.01
2022-11-15T10:42:31.950Z,12.02
2022-11-15T10:44:58.938Z,12.04
2022-11-15T10:47:38.837Z,12.08
2022-11-15T10:50:33.249Z,12.13
2022-11-15T10:53:03.531Z,12.16
2022-11-15T10:55:34.133Z,12.22
2022-11-15T10:58:21.547Z,12.27
2022-11-15T11:00:48.892Z,12.34
2022-11-15T11:04:05.864Z,12.36
2022-11-15T11:06:56.380Z,12.42
2022-11-15T11:09:34.837Z,12.45
2022-11-15T11:12:03.318Z,12.48
2022-11-15T11:14:36.931Z,12.51
2022-11-15T11:17:06.882Z,12.52
2022-11-15T11:20:04.504Z,12.53
2022-11-15T11:22:44.333Z,12.57
2022-11-15T11:25:44.665Z,12.60
2022-11-15T11:28:45.402Z,12.66
2022-11-15T11:32:26.216Z,12.74
2022-11-15T11:34:58.932Z,12.78
2022-11-15T11:37:48.644Z,12.86
2022-11-15T11:41:09.786Z,12.93
2022-11-15T11:44:03.790Z,12.96
2022-11-15T11:46:56.681Z,13.03
2022-11-15T11:49:40.260Z,13.07
2022-11-15T11:52:30.094Z,13.12
2022-11-15T11:55:03.208Z,13.14
2022-11-15T11:57:44.562Z,13.16
2022-11-15T12:00:25.049Z,13.15
2022-11-15T12:03:10.545Z,13.16
2022-11-15T12:05:52.932Z,13.10
2022-11-15T12:08:45.306Z,13.06
2022-11-15T12:11:36.078Z,13.06
2022-11-15T12:14:15.035Z,13.05
2022-11-15T12:16:44.078Z,13.02
2022-11-15T12:19:11.098Z,12.99
2022-11-15T12:22:14.566Z,12.97
2022-11-15T12:25:02.459Z,12.95
2022-11-15T12:27:48.203Z,12.94
2022-11-15T12:30:20.087Z,12.92
2022-11-15T12:33:01.078Z,12.92
2022-11-15T12:35:42.929Z,12.90
2022-11-15T12:38:30.184Z,12.89
2022-11-15T12:41:18.454Z,12.81
2022-11-15T12:43:48.658Z,12.79
2022-11-15T12:46:31.851Z,12.77
2022-11-15T12:49:10.213Z,12.69
2022-11-15T12:51:42.796Z,12.66
2022-11-15T12:54:24.700Z,12.63
2022-11-15T12:57:03.948Z,12.60
2022-11-15T13:00:07.597Z,12.60
2022-11-15T13:02:48.370Z,12.58
2022-11-15T13:05:21.246Z,12.60
2022-11-15T13:07:48.045Z,12.59
2022-11-15T13:10:31.430Z,12.60
2022-11-15T13:13:05.048Z,12.63
2022-11-15T13:15:42.269Z,12.65
2022-11-15T13:18:29.906Z,12.66
2022-11-15T13:21:02.193Z,12.69
2022-11-15T13:23:29.936Z,12.72
2022-11-15T13:26:17.585Z,12.74
2022-11-15T13:28:52.812Z,12.77
2022-11-15T13:31:38.789Z,12.79
2022-11-15T13:34:51.055Z,12.81
2022-11-15T13:37:21.785Z,12.83
2022-11-15T13:39:50.326Z,12.86
2022-11-15T13:42:20.398Z,12.88
2022-11-15T13:45:02.985Z,12.91
2022-11-15T13:47:32.479Z,12.92
2022-11-15T13:50:01.823Z,12.94
2022-11-15T13:52:37.899Z,12.98
2022-11-15T13:55:22.428Z,12.99
2022-11-15T13:58:06.755Z,13.03
2022-11-15T14:00:46.033Z,13.05
2022-11-15T14:03:22.543Z,13.09
2022-11-15T14:06:25.090Z,13.15
2022-11-15T14:09:10.041Z,13.18
2022-11-15T14:11:37.267Z,13.18
2022-11-15T14:14:10.299Z,13.19
2022-11-15T14:16:43.803Z,13.18
2022-11-15T14:19:32.897Z,13.16
2022-11-15T14:22:14.619Z,13.14
2022-11-15T14:24:44.544Z,13.13
2022-11-15T14:27:20.668Z,13.10
2022-11-15T14:29:48.984Z,13.08
2022-11-15T14:32:20.625Z,13.07
2022-11-15T14:34:54.653Z,13.05
2022-11-15T14:37:36.091Z,13.03
2022-11-15T14:40:10.479Z,13.02
2022-11-15T14:42:37.429Z,12.99
2022-11-15T14:45:16.366Z,12.97
2022-11-15T14:47:44.237Z,12.94
2022-11-15T14:50:20.873Z,12.93
2022-11-15T14:52:49.459Z,12.92
2022-11-15T14:55:35.158Z,12.89
2022-11-15T14:58:08.691Z,12.88
2022-11-15T15:00:41.204Z,12.86
2022-11-15T15:03:09.137Z,12.87
2022-11-15T15:05:44.777Z,12.85
2022-11-15T15:08:12.258Z,12.83
2022-11-15T15:10:45.339Z,12.82
2022-11-15T15:13:25.152Z,12.83
2022-11-15T15:15:53.103Z,12.82
2022-11-15T15:18:21.033Z,12.80
2022-11-15T15:21:03.293Z,12.78
2022-11-15T15:23:31.944Z,12.78
2022-11-15T15:25:59.316Z,12.76
2022-11-15T15:28:31.282Z,12.76
2022-11-15T15:31:01.118Z,12.76
2022-11-15T15:33:28.146Z,12.76
2022-11-15T15:35:55.109Z,12.78
2022-11-15T15:38:22.587Z,12.78
2022-11-15T15:40:51.534Z,12.77
2022-11-15T15:43:18.963Z,12.77
2022-11-15T15:45:46.265Z,12.77
2022-11-15T15:48:17.709Z,12.79
2022-11-15T15:50:45.086Z,12.82
2022-11-15T15:53:13.483Z,12.83
2022-11-15T15:55:40.790Z,12.84
2022-11-15T15:58:09.077Z,12.85
2022-11-15T16:00:36.804Z,12.85
2022-11-15T16:03:04.602Z,12.88
2022-11-15T16:05:31.568Z,12.87
2022-11-15T16:07:58.627Z,12.88
2022-11-15T16:10:37.737Z,12.88
2022-11-15T16:13:05.044Z,12.89
2022-11-15T16:15:32.916Z,12.89
2022-11-15T16:18:01.900Z,12.90
2022-11-15T16:20:50.953Z,12.91
2022-11-15T16:23:21.024Z,12.91
2022-11-15T16:25:48.808Z,12.92
2022-11-15T16:28:26.773Z,12.93
2022-11-15T16:31:11.318Z,12.91
2022-11-15T16:33:39.447Z,12.90
2022-11-15T16:36:25.612Z,12.89
2022-11-15T16:38:55.633Z,12.90
2022-11-15T16:41:22.574Z,12.90
2022-11-15T16:43:49.805Z,12.91
2022-11-15T16:46:26.081Z,12.92
2022-11-15T16:48:54.189Z,12.96
2022-11-15T16:51:21.783Z,12.99
2022-11-15T16:53:49.911Z,13.04
2022-11-15T16:56:29.694Z,13.07
2022-11-15T16:59:00.871Z,13.11
2022-11-15T17:01:36.843Z,13.12
2022-11-15T17:04:12.621Z,13.13
2022-11-15T17:06:41.908Z,13.12
2022-11-15T17:09:25.087Z,13.07
2022-11-15T17:11:53.024Z,13.06
2022-11-15T17:14:20.036Z,13.02
2022-11-15T17:16:47.131Z,12.98
2022-11-15T17:19:16.997Z,12.96
2022-11-15T17:21:45.200Z,12.95
2022-11-15T17:24:12.845Z,12.93
2022-11-15T17:26:41.116Z,12.93
2022-11-15T17:29:08.549Z,12.94
2022-11-15T17:31:36.809Z,12.95
2022-11-15T17:34:05.847Z,12.97
2022-11-15T17:36:33.359Z,12.98
2022-11-15T17:39:00.547Z,13.00
2022-11-15T17:41:29.206Z,13.02
2022-11-15T17:43:59.711Z,13.06
2022-11-15T17:46:28.546Z,13.06
2022-11-15T17:48:57.339Z,13.04
2022-11-15T17:51:24.665Z,13.04
2022-11-15T17:53:52.891Z,13.02
2022-11-15T17:56:22.726Z,13.00
2022-11-15T17:58:51.637Z,12.99
2022-11-15T18:01:30.403Z,12.95
2022-11-15T18:04:00.608Z,12.92
2022-11-15T18:06:30.623Z,12.91
2022-11-15T18:08:58.352Z,12.89
2022-11-15T18:11:29.709Z,12.88
2022-11-15T18:13:59.713Z,12.88
2022-11-15T18:16:30.864Z,12.89
2022-11-15T18:18:59.204Z,12.90
2022-11-15T18:21:30.377Z,12.90
2022-11-15T18:24:00.094Z,12.92
2022-11-15T18:26:29.277Z,12.93
2022-11-15T18:29:05.339Z,12.96
2022-11-15T18:31:32.381Z,12.99
2022-11-15T18:34:00.678Z,13.00
2022-11-15T18:36:30.533Z,13.02
2022-11-15T18:39:02.232Z,13.04
2022-11-15T18:41:30.638Z,13.06
2022-11-15T18:44:00.702Z,13.05
2022-11-15T18:46:31.291Z,13.06
2022-11-15T18:49:00.974Z,13.06
2022-11-15T18:51:30.493Z,13.06
2022-11-15T18:54:01.715Z,13.05
2022-11-15T18:56:30.970Z,13.05
2022-11-15T18:59:02.272Z,13.06
2022-11-15T19:01:36.497Z,13.04
2022-11-15T19:04:08.000Z,13.02
2022-11-15T19:06:39.641Z,13.02
2022-11-15T19:09:08.318Z,13.00
2022-11-15T19:11:39.286Z,12.99
2022-11-15T19:14:17.809Z,12.97
2022-11-15T19:16:55.052Z,12.96
2022-11-15T19:19:28.423Z,12.98
2022-11-15T19:21:57.083Z,12.98
2022-11-15T19:24:24.788Z,13.00
2022-11-15T19:26:51.722Z,13.00
2022-11-15T19:29:18.811Z,13.00
2022-11-15T19:31:45.773Z,13.00
2022-11-15T19:34:12.881Z,13.03
2022-11-15T19:36:44.428Z,13.02
2022-11-15T19:39:13.614Z,13.04
2022-11-15T19:41:43.192Z,13.03
2022-11-15T19:44:11.925Z,13.06
2022-11-15T19:46:39.618Z,13.06
2022-11-15T19:49:10.894Z,13.08
2022-11-15T19:51:41.375Z,13.07
2022-11-15T19:54:09.705Z,13.08
2022-11-15T19:56:38.131Z,13.08
2022-11-15T19:59:05.991Z,13.07
2022-11-15T20:01:36.905Z,13.04
2022-11-15T20:04:05.160Z,13.03
2022-11-15T20:06:36.277Z,13.01
2022-11-15T20:09:03.962Z,12.98
2022-11-15T20:11:31.028Z,12.95
2022-11-15T20:14:01.948Z,12.91
2022-11-15T20:16:29.326Z,12.86
2022-11-15T20:20:41.481Z,12.79
2022-11-15T20:23:08.723Z,12.76
2022-11-15T20:25:38.955Z,12.71
2022-11-15T20:28:07.162Z,12.68
2022-11-15T20:30:34.422Z,12.63
2022-11-15T20:33:01.505Z,12.60
2022-11-15T20:35:28.595Z,12.58
2022-11-15T20:37:55.711Z,12.55
2022-11-15T20:40:22.670Z,12.54
2022-11-15T20:42:53.539Z,12.51
2022-11-15T20:45:20.722Z,12.48
2022-11-15T20:47:47.782Z,12.45
2022-11-15T20:50:40.332Z,12.43
2022-11-15T20:53:01.882Z,12.42
2022-11-15T20:55:29.067Z,12.42
2022-11-15T20:57:56.091Z,12.41
2022-11-15T21:00:25.693Z,12.42
2022-11-15T21:02:53.279Z,12.41
2022-11-15T21:05:20.916Z,12.41
2022-11-15T21:07:48.090Z,12.41
2022-11-15T21:10:34.121Z,12.40
2022-11-15T21:13:01.067Z,12.40
2022-11-15T21:15:28.001Z,12.41
2022-11-15T21:17:55.046Z,12.41
2022-11-15T21:20:22.057Z,12.42
2022-11-15T21:22:49.457Z,12.42
2022-11-15T21:25:16.465Z,12.42
2022-11-15T21:27:43.394Z,12.45
2022-11-15T21:30:12.573Z,12.46
2022-11-15T21:32:39.536Z,12.48
2022-11-15T21:35:06.996Z,12.48
2022-11-15T21:37:34.014Z,12.50
2022-11-15T21:40:01.006Z,12.50
2022-11-15T21:42:27.955Z,12.53
2022-11-15T21:44:54.900Z,12.55
2022-11-15T21:47:21.831Z,12.57
2022-11-15T21:49:49.559Z,12.58
2022-11-15T21:52:16.490Z,12.59
2022-11-15T21:54:44.416Z,12.59
2022-11-15T21:57:11.753Z,12.57
2022-11-15T21:59:58.851Z,12.52
2022-11-15T22:02:25.908Z,12.50
2022-11-15T22:04:52.832Z,12.49
2022-11-15T22:07:20.196Z,12.46
2022-11-15T22:09:47.188Z,12.41
2022-11-15T22:12:14.189Z,12.40
2022-11-15T22:14:41.134Z,12.37
2022-11-15T22:17:11.267Z,12.30
2022-11-15T22:19:51.866Z,12.25
2022-11-15T22:22:19.737Z,12.20
2022-11-15T22:24:46.817Z,12.15
2022-11-15T22:27:13.897Z,12.10
2022-11-15T22:29:40.870Z,12.05
2022-11-15T22:32:07.893Z,12.00
2022-11-15T22:34:34.864Z,11.98
2022-11-15T22:39:49.410Z,11.92
2022-11-15T22:42:20.716Z,11.90
2022-11-15T22:44:50.341Z,11.89
2022-11-15T22:47:18.179Z,11.87
2022-11-15T22:49:45.264Z,11.85
2022-11-15T22:52:13.253Z,11.83
2022-11-15T22:54:40.409Z,11.81
2022-11-15T22:57:07.830Z,11.79
2022-11-15T22:59:37.046Z,11.76
2022-11-15T23:02:04.704Z,11.72
2022-11-15T23:04:31.699Z,11.70
2022-11-15T23:06:58.741Z,11.67
2022-11-15T23:09:25.821Z,11.65
2022-11-15T23:12:11.601Z,11.63
2022-11-15T23:14:38.608Z,11.61
2022-11-15T23:17:05.583Z,11.58
2022-11-15T23:19:32.558Z,11.56
2022-11-15T23:22:17.948Z,11.53
2022-11-15T23:24:44.978Z,11.51
2022-11-15T23:27:15.139Z,11.50
2022-11-15T23:30:00.723Z,11.48
2022-11-15T23:32:46.466Z,11.45
2022-11-15T23:35:13.451Z,11.42
2022-11-15T23:37:40.402Z,11.42
2022-11-15T23:40:08.633Z,11.41
2022-11-15T23:42:35.637Z,11.38
2022-11-15T23:45:02.679Z,11.38
2022-11-15T23:47:29.648Z,11.35
2022-11-15T23:49:56.631Z,11.33
2022-11-15T23:52:25.236Z,11.32
2022-11-15T23:54:52.394Z,11.32
2022-11-15T23:57:19.605Z,11.29
2022-11-15T23:59:46.610Z,11.29
